Moultonborough, NH

7:46 AM EDT on August 20, 2014 (GMT -0400)
Black Cat Island | Change Station
CLOSE
Current Station
Personal Weather Station
Location: Moultonborough, NH
Elevation: 538 ft
Nearby Weather Stations

Elev 538 ft 43.69 °N, 71.42 °W | Updated 1 day ago

Clear
Clear
57 °F
Feels Like 57 °F
N
2
Wind Variable Wind from SSW
Gusts 3 mph

Today
High -- | Low -- °F
--% Chance of Precip.
Yesterday
High -- | Low -- °F
Precip. -- in
5:55 AM 7:41 PM
Waning Crescent, 22% visible
Pressure 30.01 in
Visibility 10.0 miles
Clouds Clear
Dew Point 54 °F
Humidity 89%
Rainfall 0.00 in
Snow Depth Not available.
UV 1 out of 12
Pollen 7.70 out of 12
Ozone Good
Flu Activity Not available.
METAR KLCI 201135Z AUTO 00000KT 10SM CLR 14/12 A3001 RMK AO1

More Conditions Fewer Conditions

Pressure 30.01 in
Visibility 10.0 miles
Clouds Clear
Dew Point 54 °F
Humidity 89%
Rainfall 0.00 in
Snow Depth Not available.
UV 1 out of 12
Pollen 7.70 out of 12
Ozone Good
Flu Activity Not available.
METAR KLCI 201135Z AUTO 00000KT 10SM CLR 14/12 A3001 RMK AO1

More Conditions Fewer Conditions

10-Day Weather Forecast

Almanac

Astronomy

Aug. 20, 2014 Rise Set
Actual Time 5:55 AM EDT 7:41 PM EDT
Civil Twilight 5:25 AM EDT 8:12 PM EDT
Nautical Twilight 4:47 AM EDT 8:49 PM EDT
Astronomical Twilight 4:07 AM EDT 9:29 PM EDT
Moon 1:29 AM EDT 4:27 PM EDT
Length of Visible Light 14h 46m
Length of Day
13h 45m
Tomorrow will be 2m 44s shorter.
Waning Crescent, 22% of the Moon is Illuminated
Today
Waning Crescent
Aug 25
New
Sep 2
First Quarter
Sep 8
Full
Sep 15
Last Quarter

Today's Extremes

State Highs State Lows

Community

WunderPhotos

Upload Photos

1,745,611 photos uploaded!

WunderBlogs® & News

By Dr. Jeff Masters
Director of Meteorology, Weather Underground
By Kari Strenfel
Meteorologist, Weather Underground
By Christopher C. Burt
Weather Historian, Weather Underground
August 20, 2014
August 20, 2014
August 20, 2014

Nearby

Air Quality

  Air Quality AQ Index Pollutant
Yesterday Good
OZONE
Current Good
OZONE
Wednesday Good
PM2.5
Wednesday Good
OZONE

Snow Depth

Station Depth Elevation
No new snow has been reported.

Earthquake Activity

City Distance Mag. Time & Date
No recent earthquake activity has been reported nearby.
Minimum magnitude displayed is 2.5.

Coastal Water Temperatures

Place Temperature
No Stations Reporting

Nearby Weather Stations